Time,TemperatureF,DewpointF,PressureIn,WindDirection,WindDirectionDegrees,WindSpeedMPH,WindSpeedGustMPH,Humidity,HourlyPrecipIn,Conditions,Clouds,dailyrainin,SoftwareType,DateUTC
2013-09-15 00:03:00,52.0,-46.0,30.01,WSW,247,3.0,6.0,1,0.00,,,0.00,Weather View 32 v70,2013-09-15 04:03:00,
2013-09-15 00:31:00,52.0,-46.0,30.01,West,270,7.0,9.0,1,0.00,,,0.00,Weather View 32 v70,2013-09-15 04:31:00,
2013-09-15 01:01:00,51.0,-46.6,30.01,WSW,247,5.0,10.0,1,0.00,,,0.00,Weather View 32 v70,2013-09-15 05:01:00,
2013-09-15 01:06:00,51.0,-46.6,30.01,WSW,247,5.0,10.0,1,0.00,,,0.00,Weather View 32 v70,2013-09-15 05:06:00,
2013-09-15 01:32:00,51.0,-46.6,30.03,WSW,247,4.0,10.0,1,0.00,,,0.00,Weather View 32 v70,2013-09-15 05:32:00,
2013-09-15 02:00:00,50.0,-47.2,30.05,WSW,247,6.0,9.0,1,0.00,,,0.00,Weather View 32 v70,2013-09-15 06:00:00,
2013-09-15 02:02:00,50.0,-47.2,30.05,WSW,247,6.0,9.0,1,0.00,,,0.00,Weather View 32 v70,2013-09-15 06:02:00,
2013-09-15 02:31:00,50.0,-47.2,30.04,WNW,292,2.0,7.0,1,0.00,,,0.00,Weather View 32 v70,2013-09-15 06:31:00,
2013-09-15 03:00:00,48.0,-48.4,30.05,NNW,337,3.0,7.0,1,0.00,,,0.00,Weather View 32 v70,2013-09-15 07:00:00,
2013-09-15 03:02:00,48.0,-48.4,30.05,NNW,337,3.0,7.0,1,0.00,,,0.00,Weather View 32 v70,2013-09-15 07:02:00,
2013-09-15 03:33:00,48.0,-48.4,30.06,WSW,247,2.0,5.0,1,0.00,,,0.00,Weather View 32 v70,2013-09-15 07:33:00,
2013-09-15 04:00:00,48.0,-48.4,30.07,WNW,292,6.0,7.0,1,0.00,,,0.00,Weather View 32 v70,2013-09-15 08:00:00,
2013-09-15 04:04:00,48.0,-48.4,30.07,WNW,292,6.0,7.0,1,0.00,,,0.00,Weather View 32 v70,2013-09-15 08:04:00,
2013-09-15 04:31:00,48.0,-48.4,30.07,WNW,292,5.0,7.0,1,0.00,,,0.00,Weather View 32 v70,2013-09-15 08:31:00,
2013-09-15 05:00:00,48.0,-48.4,30.08,WNW,292,7.0,9.0,1,0.00,,,0.00,Weather View 32 v70,2013-09-15 09:00:00,
2013-09-15 05:01:00,48.0,-48.4,30.08,WNW,292,7.0,9.0,1,0.00,,,0.00,Weather View 32 v70,2013-09-15 09:01:00,
2013-09-15 05:32:00,48.0,-48.4,30.09,NW,315,5.0,9.0,1,0.00,,,0.00,Weather View 32 v70,2013-09-15 09:32:00,
2013-09-15 06:00:00,47.0,-49.0,30.09,WNW,292,6.0,9.0,1,0.00,,,0.00,Weather View 32 v70,2013-09-15 10:00:00,
2013-09-15 06:01:00,47.0,-49.0,30.09,WNW,292,6.0,9.0,1,0.00,,,0.00,Weather View 32 v70,2013-09-15 10:01:00,
2013-09-15 06:31:00,47.0,-49.0,30.10,WNW,292,6.0,8.0,1,0.00,,,0.00,Weather View 32 v70,2013-09-15 10:31:00,
2013-09-15 07:00:00,48.0,-48.4,30.11,West,270,5.0,8.0,1,0.00,,,0.00,Weather View 32 v70,2013-09-15 11:00:00,
2013-09-15 07:02:00,48.0,-48.4,30.11,West,270,5.0,8.0,1,0.00,,,0.00,Weather View 32 v70,2013-09-15 11:02:00,
2013-09-15 07:30:00,50.0,-47.2,30.11,NW,315,5.0,8.0,1,0.00,,,0.00,Weather View 32 v70,2013-09-15 11:30:00,
2013-09-15 08:00:00,53.0,-45.3,30.10,WSW,247,7.0,8.0,1,0.00,,,0.00,Weather View 32 v70,2013-09-15 12:00:00,
2013-09-15 08:01:00,53.0,-45.3,30.10,WSW,247,7.0,8.0,1,0.00,,,0.00,Weather View 32 v70,2013-09-15 12:01:00,
2013-09-15 08:30:00,56.0,30.7,30.10,WSW,247,4.0,8.0,38,0.00,,,0.00,Weather View 32 v70,2013-09-15 12:30:00,
2013-09-15 09:01:00,58.0,43.3,30.09,SW,225,5.0,10.0,58,0.00,,,0.00,Weather View 32 v70,2013-09-15 13:01:00,
2013-09-15 09:32:00,59.0,54.5,30.10,WSW,247,6.0,11.0,85,0.00,,,0.00,Weather View 32 v70,2013-09-15 13:32:00,
2013-09-15 10:01:00,61.0,56.4,30.09,WSW,247,7.0,12.0,85,0.00,,,0.00,Weather View 32 v70,2013-09-15 14:01:00,
2013-09-15 10:31:00,63.0,58.1,30.08,South,180,4.0,12.0,84,0.00,,,0.00,Weather View 32 v70,2013-09-15 14:31:00,
2013-09-15 11:01:00,62.0,57.8,30.08,SE,135,7.0,12.0,86,0.00,,,0.00,Weather View 32 v70,2013-09-15 15:01:00,
2013-09-15 11:31:00,63.0,58.1,30.07,ESE,112,5.0,14.0,84,0.00,,,0.00,Weather View 32 v70,2013-09-15 15:31:00,
2013-09-15 12:01:00,65.0,51.2,30.05,SSW,202,8.0,14.0,61,0.00,,,0.00,Weather View 32 v70,2013-09-15 16:01:00,
2013-09-15 12:32:00,63.0,58.1,30.05,ESE,112,9.0,14.0,84,0.00,,,0.00,Weather View 32 v70,2013-09-15 16:32:00,
2013-09-15 13:01:00,62.0,57.8,30.03,ENE,67,6.0,14.0,86,0.00,,,0.00,Weather View 32 v70,2013-09-15 17:01:00,
2013-09-15 13:32:00,66.0,53.4,30.02,South,180,5.0,13.0,64,0.00,,,0.00,Weather View 32 v70,2013-09-15 17:32:00,
2013-09-15 14:01:00,65.0,50.7,30.01,SW,225,7.0,17.0,60,0.00,,,0.00,Weather View 32 v70,2013-09-15 18:01:00,
2013-09-15 14:32:00,65.0,52.9,30.01,WSW,247,6.0,17.0,65,0.00,,,0.00,Weather View 32 v70,2013-09-15 18:32:00,
2013-09-15 14:38:00,65.0,52.9,30.01,WSW,247,6.0,17.0,65,0.00,,,0.00,Weather View 32 v70,2013-09-15 18:38:00,
2013-09-15 15:03:00,68.0,52.6,29.98,WSW,247,10.0,16.0,58,0.00,,,0.00,Weather View 32 v70,2013-09-15 19:03:00,
2013-09-15 15:30:00,67.0,52.6,29.98,South,180,7.0,16.0,60,0.00,,,0.00,Weather View 32 v70,2013-09-15 19:30:00,
2013-09-15 15:32:00,67.0,52.6,29.98,South,180,7.0,16.0,60,0.00,,,0.00,Weather View 32 v70,2013-09-15 19:32:00,
2013-09-15 16:03:00,67.0,53.5,29.98,SSW,202,1.0,16.0,62,0.00,,,0.00,Weather View 32 v70,2013-09-15 20:03:00,
2013-09-15 16:30:00,67.0,54.0,29.97,South,180,8.0,12.0,63,0.00,,,0.00,Weather View 32 v70,2013-09-15 20:30:00,
2013-09-15 16:31:00,67.0,54.0,29.97,South,180,8.0,12.0,63,0.00,,,0.00,Weather View 32 v70,2013-09-15 20:31:00,
2013-09-15 17:01:00,67.0,56.9,29.97,SE,135,6.0,14.0,70,0.00,,,0.00,Weather View 32 v70,2013-09-15 21:01:00,
2013-09-15 17:30:00,66.0,59.3,29.96,SSE,157,9.0,14.0,79,0.00,,,0.00,Weather View 32 v70,2013-09-15 21:30:00,
2013-09-15 17:31:00,66.0,59.3,29.96,SSE,157,9.0,14.0,79,0.00,,,0.00,Weather View 32 v70,2013-09-15 21:31:00,
2013-09-15 18:01:00,63.0,61.2,29.98,SSE,157,9.0,15.0,94,0.00,,,0.00,Weather View 32 v70,2013-09-15 22:01:00,
2013-09-15 18:30:00,60.0,55.5,30.00,SSE,157,6.0,15.0,85,0.00,,,0.00,Weather View 32 v70,2013-09-15 22:30:00,
2013-09-15 18:32:00,60.0,55.5,30.00,SSE,157,6.0,15.0,85,0.00,,,0.00,Weather View 32 v70,2013-09-15 22:32:00,
2013-09-15 19:04:00,59.0,53.5,30.01,SW,225,5.0,12.0,82,0.00,,,0.00,Weather View 32 v70,2013-09-15 23:04:00,
2013-09-15 19:30:00,56.0,42.7,30.01,East,90,3.0,7.0,61,0.00,,,0.00,Weather View 32 v70,2013-09-15 23:30:00,
2013-09-15 19:31:00,56.0,42.7,30.01,East,90,3.0,7.0,61,0.00,,,0.00,Weather View 32 v70,2013-09-15 23:31:00,
2013-09-15 20:00:00,56.0,45.6,30.02,WSW,247,6.0,10.0,68,0.00,,,0.00,Weather View 32 v70,2013-09-16 00:00:00,
2013-09-15 20:30:00,55.0,43.4,30.02,NNW,337,4.0,10.0,65,0.00,,,0.00,Weather View 32 v70,2013-09-16 00:30:00,
2013-09-15 20:31:00,55.0,43.4,30.02,NNW,337,4.0,10.0,65,0.00,,,0.00,Weather View 32 v70,2013-09-16 00:31:00,
2013-09-15 21:02:00,55.0,38.1,30.02,WSW,247,5.0,10.0,53,0.00,,,0.00,Weather View 32 v70,2013-09-16 01:02:00,
2013-09-15 21:30:00,54.0,32.0,30.03,WNW,292,5.0,9.0,43,0.00,,,0.00,Weather View 32 v70,2013-09-16 01:30:00,
2013-09-15 21:31:00,54.0,32.0,30.03,WNW,292,5.0,9.0,43,0.00,,,0.00,Weather View 32 v70,2013-09-16 01:31:00,
2013-09-15 22:00:00,53.0,10.6,30.02,NW,315,6.0,9.0,18,0.00,,,0.00,Weather View 32 v70,2013-09-16 02:00:00,
2013-09-15 22:31:00,53.0,-26.0,30.02,NW,315,4.0,9.0,3,0.00,,,0.00,Weather View 32 v70,2013-09-16 02:31:00,
2013-09-15 23:01:00,52.0,-46.0,30.01,WNW,292,5.0,9.0,1,0.00,,,0.00,Weather View 32 v70,2013-09-16 03:01:00,
2013-09-15 23:32:00,52.0,-46.0,30.01,WNW,292,5.0,7.0,1,0.00,,,0.00,Weather View 32 v70,2013-09-16 03:32:00,